Time;durP1;ratioP1;P1;durP2;ratioP2;P2;SDS_P1;SDS_P2;PMS_P1;PMS_P2;Temp;Humidity;BMP_temperature;BMP_pressure;BME280_temperature;BME280_humidity;BME280_pressure;Samples;Min_cycle;Max_cycle;Signal;HPM_P1;HPM_P2
2023/08/04 03:00:37;;;;;;;0.60;0.20;;;22.70;55.10;;;;;;5782926;23;45393;-88
2023/08/04 03:03:03;;;;;;;0.47;0.30;;;22.70;55.20;;;;;;4857306;28;44725;-85
2023/08/04 03:05:29;;;;;;;0.20;0.15;;;22.70;55.20;;;;;;4850767;28;45178;-83
2023/08/04 03:07:54;;;;;;;0.57;0.30;;;22.70;55.20;;;;;;4893743;28;46853;-85
2023/08/04 03:10:20;;;;;;;0.20;0.10;;;22.70;55.20;;;;;;4871398;28;44819;-83
2023/08/04 03:12:45;;;;;;;0.35;0.20;;;22.70;55.20;;;;;;4873126;28;45530;-84
2023/08/04 03:15:11;;;;;;;1.30;0.30;;;22.70;55.20;;;;;;4866451;28;45533;-86
2023/08/04 03:17:36;;;;;;;0.43;0.20;;;22.70;55.20;;;;;;4879275;28;46172;-85
2023/08/04 03:20:05;;;;;;;0.40;0.20;;;22.70;55.10;;;;;;4846045;28;45484;-84
2023/08/04 03:22:31;;;;;;;0.30;0.30;;;22.70;55.20;;;;;;4861751;28;45130;-83
2023/08/04 03:24:57;;;;;;;0.50;0.40;;;22.70;55.20;;;;;;4861606;28;45489;-83
2023/08/04 03:27:23;;;;;;;0.85;0.25;;;22.70;55.20;;;;;;4861241;28;46901;-83
2023/08/04 03:29:49;;;;;;;0.30;0.20;;;22.70;55.10;;;;;;4865222;28;44906;-86
2023/08/04 03:32:14;;;;;;;0.60;0.20;;;22.70;55.10;;;;;;4857025;28;45364;-85
2023/08/04 03:34:40;;;;;;;0.35;0.20;;;22.70;55.10;;;;;;4861642;28;45350;-86
2023/08/04 03:37:05;;;;;;;0.65;0.30;;;22.70;55.10;;;;;;4872152;28;45476;-89
2023/08/04 03:39:31;;;;;;;0.63;0.15;;;22.70;55.10;;;;;;4855750;28;45279;-85
2023/08/04 03:41:57;;;;;;;0.35;0.20;;;22.70;55.10;;;;;;4859179;28;45205;-85
2023/08/04 03:44:22;;;;;;;0.28;0.15;;;22.70;55.10;;;;;;4864947;28;45600;-84
2023/08/04 03:46:48;;;;;;;1.40;0.30;;;22.70;55.10;;;;;;4859367;28;47876;-84
2023/08/04 03:49:13;;;;;;;0.20;0.20;;;22.70;55.10;;;;;;4866470;28;45229;-84
2023/08/04 03:51:39;;;;;;;0.50;0.20;;;22.70;55.10;;;;;;4863132;28;45708;-83
2023/08/04 03:54:05;;;;;;;0.45;0.30;;;22.70;55.10;;;;;;4864823;28;45305;-84
2023/08/04 03:56:31;;;;;;;1.30;0.40;;;22.70;55.10;;;;;;4861814;28;46941;-84
2023/08/04 03:58:56;;;;;;;0.30;0.20;;;22.70;55.10;;;;;;4873585;28;45489;-84
2023/08/04 04:01:22;;;;;;;0.47;0.40;;;22.70;55.10;;;;;;4831892;28;45470;-84
2023/08/04 04:03:47;;;;;;;0.30;0.10;;;22.70;55.10;;;;;;4850272;28;45501;-84
2023/08/04 04:06:13;;;;;;;0.55;0.20;;;22.70;55.10;;;;;;4862039;28;47118;-86
2023/08/04 04:08:39;;;;;;;0.50;0.20;;;22.70;55.10;;;;;;4876603;28;45211;-85
2023/08/04 04:11:04;;;;;;;0.28;0.20;;;22.70;55.00;;;;;;4845094;28;45494;-84
2023/08/04 04:13:30;;;;;;;0.30;0.15;;;22.70;55.10;;;;;;4880868;28;45407;-85
2023/08/04 04:15:55;;;;;;;0.28;0.20;;;22.70;55.10;;;;;;4872703;28;47174;-84
2023/08/04 04:18:21;;;;;;;0.10;0.10;;;22.70;55.10;;;;;;4865651;28;45150;-85
2023/08/04 04:20:46;;;;;;;0.30;0.20;;;22.70;55.10;;;;;;4847425;28;45069;-85
2023/08/04 04:23:12;;;;;;;0.98;0.30;;;22.70;55.10;;;;;;4867668;28;45494;-84
2023/08/04 04:25:37;;;;;;;2.30;0.50;;;22.70;55.10;;;;;;4862766;28;46492;-84
2023/08/04 04:28:03;;;;;;;0.15;0.10;;;22.70;55.10;;;;;;4871126;28;45280;-84
2023/08/04 04:30:29;;;;;;;0.32;0.30;;;22.70;55.10;;;;;;4860401;28;45402;-86
2023/08/04 04:32:54;;;;;;;0.60;0.30;;;22.70;55.10;;;;;;4874672;28;45493;-85
2023/08/04 04:35:20;;;;;;;0.20;0.20;;;22.70;55.00;;;;;;4873393;28;47892;-83
2023/08/04 04:37:46;;;;;;;0.57;0.20;;;22.70;55.00;;;;;;4882370;28;45460;-84
2023/08/04 04:40:11;;;;;;;0.73;0.30;;;22.70;55.10;;;;;;4867459;28;45739;-86
2023/08/04 04:42:37;;;;;;;0.60;0.30;;;22.70;55.10;;;;;;4870506;28;45289;-84
2023/08/04 04:45:03;;;;;;;0.32;0.20;;;22.70;55.10;;;;;;4854626;28;48521;-88
2023/08/04 04:47:29;;;;;;;1.17;0.30;;;22.70;55.10;;;;;;4866057;28;45566;-84
2023/08/04 04:49:54;;;;;;;0.25;0.20;;;22.70;55.00;;;;;;4851940;28;45889;-86
2023/08/04 04:52:29;;;;;;;0.77;0.28;;;22.70;55.00;;;;;;4873554;28;45424;-84
2023/08/04 04:54:55;;;;;;;0.40;0.20;;;22.70;55.00;;;;;;4893037;28;46621;-84
2023/08/04 04:57:21;;;;;;;0.50;0.28;;;22.70;55.00;;;;;;4862393;28;45462;-84
2023/08/04 04:59:47;;;;;;;0.30;0.20;;;22.70;55.10;;;;;;4886294;28;45492;-83
2023/08/04 05:02:12;;;;;;;0.35;0.20;;;22.70;55.00;;;;;;4858016;28;45654;-85
2023/08/04 05:04:38;;;;;;;0.65;0.25;;;22.60;55.00;;;;;;4876614;28;46797;-86
2023/08/04 05:07:04;;;;;;;1.08;0.28;;;22.70;55.10;;;;;;4863525;28;45671;-84
2023/08/04 05:09:29;;;;;;;0.90;0.43;;;22.70;55.00;;;;;;4869594;28;45054;-88
2023/08/04 05:11:55;;;;;;;0.35;0.20;;;22.70;55.00;;;;;;4883504;28;45260;-84
2023/08/04 05:14:20;;;;;;;1.55;0.20;;;22.70;55.00;;;;;;4865978;28;46990;-85
2023/08/04 05:16:46;;;;;;;0.73;0.20;;;22.70;55.00;;;;;;4862644;28;45298;-84
2023/08/04 05:19:11;;;;;;;1.30;0.30;;;22.70;55.10;;;;;;4863777;28;45508;-85
2023/08/04 05:21:37;;;;;;;0.80;0.30;;;22.70;55.00;;;;;;4857638;28;45090;-85
2023/08/04 05:24:03;;;;;;;0.20;0.10;;;22.70;55.00;;;;;;4865625;28;47070;-84
2023/08/04 05:26:28;;;;;;;0.70;0.20;;;22.70;55.60;;;;;;4892146;28;45299;-84
2023/08/04 05:28:54;;;;;;;0.30;0.20;;;22.70;55.00;;;;;;4816904;28;45861;-84
2023/08/04 05:31:19;;;;;;;0.40;0.20;;;22.70;55.00;;;;;;4874047;28;45549;-84
2023/08/04 05:33:45;;;;;;;0.38;0.17;;;22.70;55.10;;;;;;4867788;28;47567;-85
2023/08/04 05:36:12;;;;;;;0.40;0.20;;;22.70;55.10;;;;;;4859699;29;45761;-84
2023/08/04 05:38:38;;;;;;;0.65;0.28;;;22.70;55.10;;;;;;4864790;28;44978;-83
2023/08/04 05:41:04;;;;;;;0.57;0.30;;;22.70;55.00;;;;;;4868483;28;45243;-85
2023/08/04 05:43:30;;;;;;;0.63;0.30;;;22.70;55.10;;;;;;4867907;28;47317;-83
2023/08/04 05:46:00;;;;;;;0.47;0.20;;;22.70;55.10;;;;;;4876412;28;45514;-84
2023/08/04 05:48:26;;;;;;;0.65;0.20;;;22.70;55.00;;;;;;4879350;28;45562;-87
2023/08/04 05:50:55;;;;;;;0.50;0.35;;;22.70;55.10;;;;;;4882574;28;44996;-84
2023/08/04 05:53:20;;;;;;;0.82;0.40;;;22.70;55.10;;;;;;4881343;28;45248;-84
2023/08/04 05:55:46;;;;;;;0.20;0.13;;;22.60;55.00;;;;;;4883774;28;45550;-84
2023/08/04 05:58:11;;;;;;;0.55;0.30;;;22.60;55.00;;;;;;4883829;28;45405;-83
2023/08/04 06:00:37;;;;;;;0.35;0.20;;;22.60;55.00;;;;;;4854609;28;45541;-84
2023/08/04 06:03:04;;;;;;;0.30;0.17;;;22.60;55.00;;;;;;4865082;28;48278;-84
2023/08/04 06:05:30;;;;;;;0.20;0.13;;;22.60;55.10;;;;;;4861649;28;44851;-84
2023/08/04 06:07:55;;;;;;;0.40;0.30;;;22.60;55.00;;;;;;4866118;28;45317;-85
2023/08/04 06:10:21;;;;;;;0.30;0.20;;;22.60;55.00;;;;;;4878669;28;45572;-85
2023/08/04 06:12:47;;;;;;;0.30;0.30;;;22.60;55.10;;;;;;4885839;28;46287;-86
2023/08/04 06:15:13;;;;;;;0.75;0.30;;;22.60;55.00;;;;;;4858246;28;45654;-87
2023/08/04 06:17:40;;;;;;;1.13;0.30;;;22.60;55.00;;;;;;4881166;28;44794;-84
2023/08/04 06:20:09;;;;;;;0.73;0.17;;;22.60;55.00;;;;;;4862758;28;45412;-89
2023/08/04 06:22:35;;;;;;;0.60;0.20;;;22.60;55.00;;;;;;4901076;28;46212;-84
2023/08/04 06:25:01;;;;;;;0.40;0.20;;;22.60;55.00;;;;;;4876882;28;45123;-84
2023/08/04 06:27:27;;;;;;;1.05;0.20;;;22.60;55.00;;;;;;4881292;28;45204;-85
2023/08/04 06:29:52;;;;;;;0.30;0.20;;;22.60;55.00;;;;;;4864219;28;45745;-85
2023/08/04 06:32:18;;;;;;;0.35;0.20;;;22.60;55.00;;;;;;4869570;28;45534;-86
2023/08/04 06:34:43;;;;;;;0.30;0.30;;;22.60;55.00;;;;;;4866403;28;45590;-84
2023/08/04 06:37:09;;;;;;;1.13;0.40;;;22.60;55.00;;;;;;4882571;28;45278;-84
2023/08/04 06:39:34;;;;;;;0.30;0.20;;;22.60;55.00;;;;;;4869878;28;45647;-86
2023/08/04 06:42:00;;;;;;;1.30;0.25;;;22.60;55.00;;;;;;4848634;28;48014;-85
2023/08/04 06:44:25;;;;;;;0.32;0.20;;;22.60;55.00;;;;;;4869375;28;45688;-85
2023/08/04 06:46:51;;;;;;;0.70;0.30;;;22.60;55.00;;;;;;4857441;28;45836;-85
2023/08/04 06:49:16;;;;;;;0.32;0.25;;;22.60;55.00;;;;;;4867103;28;45816;-85
2023/08/04 06:51:42;;;;;;;0.95;0.30;;;22.60;55.10;;;;;;4857356;28;48373;-84
2023/08/04 06:54:07;;;;;;;1.80;0.30;;;22.60;55.00;;;;;;4868236;29;45242;-85
2023/08/04 06:56:33;;;;;;;0.95;0.40;;;22.60;55.00;;;;;;4879087;28;45213;-84
2023/08/04 06:58:59;;;;;;;0.30;0.20;;;22.60;55.00;;;;;;4865433;28;45715;-85
2023/08/04 07:01:24;;;;;;;0.13;0.13;;;22.60;55.00;;;;;;4875051;28;46213;-84
2023/08/04 07:03:50;;;;;;;0.20;0.10;;;22.60;55.00;;;;;;4865025;28;44986;-84
2023/08/04 07:06:15;;;;;;;0.68;0.40;;;22.60;55.10;;;;;;4861858;28;45348;-85
2023/08/04 07:08:41;;;;;;;0.82;0.20;;;22.60;55.00;;;;;;4870966;28;45281;-86
2023/08/04 07:11:16;;;;;;;0.22;0.20;;;22.60;55.00;;;;;;4864215;28;48147;-84
2023/08/04 07:13:43;;;;;;;0.45;0.20;;;22.60;55.00;;;;;;4872147;28;45449;-85
2023/08/04 07:16:10;;;;;;;0.30;0.30;;;22.60;55.00;;;;;;4864374;28;44825;-84
2023/08/04 07:18:36;;;;;;;0.30;0.20;;;22.60;55.00;;;;;;4873865;28;45714;-84
2023/08/04 07:21:11;;;;;;;0.47;0.30;;;22.60;55.00;;;;;;4844390;28;46816;-84
2023/08/04 07:23:38;;;;;;;0.70;0.30;;;22.60;55.00;;;;;;4869995;28;45504;-84
2023/08/04 07:26:04;;;;;;;0.73;0.28;;;22.60;55.00;;;;;;4868024;28;45206;-84
2023/08/04 07:28:30;;;;;;;0.30;0.28;;;22.60;55.00;;;;;;4861756;28;44899;-86
2023/08/04 07:30:56;;;;;;;0.40;0.30;;;22.60;55.00;;;;;;4851522;28;45443;-85
2023/08/04 07:33:22;;;;;;;0.68;0.25;;;22.60;55.00;;;;;;4877489;28;45419;-86
2023/08/04 07:35:55;;;;;;;0.70;0.40;;;22.60;55.00;;;;;;4863984;28;45524;-85
2023/08/04 07:38:21;;;;;;;0.47;0.27;;;22.60;55.00;;;;;;4866628;28;45156;-85
2023/08/04 07:40:47;;;;;;;0.85;0.40;;;22.60;55.00;;;;;;4863258;28;47376;-86
2023/08/04 07:43:13;;;;;;;0.20;0.20;;;22.60;55.40;;;;;;4861024;28;46095;-85
2023/08/04 07:45:39;;;;;;;0.30;0.22;;;22.60;55.00;;;;;;4880064;28;45207;-86
2023/08/04 07:48:05;;;;;;;0.65;0.40;;;22.60;55.10;;;;;;4872123;28;45213;-85
2023/08/04 07:50:30;;;;;;;0.20;0.20;;;22.60;55.00;;;;;;4878289;28;45774;-85
2023/08/04 07:52:56;;;;;;;0.30;0.20;;;22.60;55.00;;;;;;4851047;28;45318;-85
2023/08/04 07:55:22;;;;;;;1.23;0.20;;;22.60;55.00;;;;;;4883705;28;45478;-84
2023/08/04 07:57:47;;;;;;;0.30;0.20;;;22.60;55.00;;;;;;4880890;28;45490;-84
2023/08/04 08:00:13;;;;;;;0.30;0.30;;;22.60;55.00;;;;;;4885747;28;45736;-89
2023/08/04 08:02:39;;;;;;;0.20;0.20;;;22.60;55.00;;;;;;4852433;28;45187;-84
2023/08/04 08:05:05;;;;;;;0.57;0.20;;;22.60;55.00;;;;;;4870459;28;45165;-89
2023/08/04 08:07:31;;;;;;;0.63;0.40;;;22.60;55.00;;;;;;4872147;28;45160;-84
2023/08/04 08:09:56;;;;;;;0.40;0.20;;;22.60;55.00;;;;;;4873232;28;46832;-85
2023/08/04 08:12:22;;;;;;;0.10;0.10;;;22.60;55.00;;;;;;4868985;29;45018;-85
2023/08/04 08:14:47;;;;;;;0.35;0.20;;;22.60;55.00;;;;;;4856383;28;44675;-84
2023/08/04 08:17:13;;;;;;;1.02;0.25;;;22.60;55.00;;;;;;4863066;28;45537;-85
2023/08/04 08:19:39;;;;;;;0.65;0.28;;;22.60;55.10;;;;;;4867668;28;46441;-84
2023/08/04 08:22:05;;;;;;;1.05;0.47;;;22.60;55.00;;;;;;4877797;28;45223;-84
2023/08/04 08:24:30;;;;;;;0.35;0.20;;;22.60;55.00;;;;;;4872354;28;45163;-84
2023/08/04 08:26:56;;;;;;;1.58;0.20;;;22.60;55.00;;;;;;4882282;28;45680;-85
2023/08/04 08:29:21;;;;;;;0.32;0.30;;;22.60;55.00;;;;;;4872014;28;46531;-84
2023/08/04 08:31:47;;;;;;;0.10;0.10;;;22.60;55.00;;;;;;4860219;28;45305;-85
2023/08/04 08:34:12;;;;;;;0.77;0.40;;;22.60;55.00;;;;;;4870703;29;45210;-85
2023/08/04 08:36:38;;;;;;;0.55;0.30;;;22.60;55.00;;;;;;4851761;28;45639;-85
2023/08/04 08:39:04;;;;;;;0.28;0.25;;;22.60;55.00;;;;;;4851546;28;46748;-84
2023/08/04 08:41:29;;;;;;;0.32;0.20;;;22.60;55.00;;;;;;4863883;28;45562;-84
2023/08/04 08:43:55;;;;;;;1.10;0.40;;;22.60;55.00;;;;;;4872781;28;45651;-84
2023/08/04 08:46:20;;;;;;;0.35;0.20;;;22.60;55.00;;;;;;4844060;28;44930;-86
2023/08/04 08:48:46;;;;;;;0.40;0.30;;;22.60;55.00;;;;;;4880899;28;45829;-85
2023/08/04 08:51:16;;;;;;;0.52;0.20;;;22.70;55.10;;;;;;4870519;28;45273;-86
2023/08/04 08:53:41;;;;;;;0.30;0.20;;;22.60;55.00;;;;;;4864333;28;45350;-87
2023/08/04 08:56:09;;;;;;;1.20;0.40;;;22.60;55.00;;;;;;4863812;28;45079;-85
2023/08/04 08:58:34;;;;;;;0.40;0.20;;;22.60;55.00;;;;;;4859981;28;47109;-85
2023/08/04 09:01:00;;;;;;;0.70;0.47;;;22.70;55.10;;;;;;4859433;28;45335;-87
2023/08/04 09:03:27;;;;;;;0.60;0.28;;;22.60;55.00;;;;;;4866109;28;45181;-85
2023/08/04 09:05:52;;;;;;;0.20;0.20;;;22.60;55.00;;;;;;4873175;28;45598;-85
2023/08/04 09:08:19;;;;;;;0.30;0.20;;;22.70;55.10;;;;;;4869420;28;46650;-86
2023/08/04 09:10:47;;;;;;;0.88;0.20;;;22.70;55.10;;;;;;4865296;28;45988;-87
2023/08/04 09:13:12;;;;;;;1.20;0.30;;;22.70;55.10;;;;;;4868060;28;45321;-86
2023/08/04 09:15:51;;;;;;;0.10;0.10;;;22.60;55.00;;;;;;4866964;28;45336;-86
2023/08/04 09:18:25;;;;;;;1.95;0.38;;;22.70;55.10;;;;;;4866831;28;47241;-83
2023/08/04 09:21:00;;;;;;;0.68;0.30;;;22.70;55.10;;;;;;4877188;28;45420;-85
2023/08/04 09:23:29;;;;;;;0.88;0.40;;;22.70;55.10;;;;;;4897769;28;45632;-87
2023/08/04 09:25:58;;;;;;;0.20;0.20;;;22.70;55.10;;;;;;4879491;28;45509;-85
2023/08/04 09:28:25;;;;;;;0.35;0.20;;;22.70;55.10;;;;;;4883486;28;46590;-85
2023/08/04 09:31:10;;;;;;;2.22;0.30;;;22.70;55.10;;;;;;4859156;28;45592;-84
2023/08/04 09:33:43;;;;;;;0.77;0.20;;;22.70;55.00;;;;;;4881490;28;45435;-85
2023/08/04 09:36:12;;;;;;;0.40;0.35;;;22.70;55.10;;;;;;4865074;28;44874;-84
2023/08/04 09:38:39;;;;;;;1.17;0.20;;;22.70;55.10;;;;;;4866041;28;48106;-84
2023/08/04 09:41:07;;;;;;;0.50;0.28;;;22.70;55.10;;;;;;4862568;28;45154;-85
2023/08/04 09:43:33;;;;;;;0.88;0.22;;;22.70;55.10;;;;;;4870199;28;45242;-85
2023/08/04 09:46:05;;;;;;;0.40;0.30;;;22.70;55.10;;;;;;4862965;28;45439;-85
2023/08/04 09:48:34;;;;;;;0.40;0.20;;;22.70;55.10;;;;;;4846916;28;46760;-85
2023/08/04 09:51:09;;;;;;;0.20;0.10;;;22.70;55.10;;;;;;4851198;28;47201;-87
2023/08/04 09:53:36;;;;;;;0.30;0.22;;;22.70;55.10;;;;;;4893443;28;44968;-86
2023/08/04 09:56:02;;;;;;;0.65;0.30;;;22.70;55.10;;;;;;4862164;28;45657;-84
2023/08/04 09:58:28;;;;;;;0.35;0.32;;;22.70;55.10;;;;;;4864403;28;47488;-86
2023/08/04 10:00:54;;;;;;;0.38;0.30;;;22.70;55.10;;;;;;4860015;28;45666;-85
2023/08/04 10:03:19;;;;;;;0.70;0.28;;;22.70;55.10;;;;;;4864332;28;44992;-84
2023/08/04 10:05:45;;;;;;;0.68;0.30;;;22.70;55.10;;;;;;4877871;28;45513;-84
2023/08/04 10:08:10;;;;;;;0.57;0.30;;;22.70;55.10;;;;;;4866596;28;46429;-87
2023/08/04 10:10:36;;;;;;;0.57;0.20;;;22.70;55.10;;;;;;4862016;28;45199;-86
2023/08/04 10:13:01;;;;;;;1.77;0.30;;;22.70;55.10;;;;;;4849278;28;46177;-87
2023/08/04 10:15:27;;;;;;;0.20;0.20;;;22.70;55.10;;;;;;4850573;28;44740;-88
2023/08/04 10:17:56;;;;;;;0.20;0.20;;;22.70;55.10;;;;;;4863415;28;47297;-84
2023/08/04 10:20:22;;;;;;;0.25;0.10;;;22.70;55.10;;;;;;4861173;28;45102;-83
2023/08/04 10:22:48;;;;;;;0.40;0.20;;;22.70;55.10;;;;;;4881127;28;45578;-86
2023/08/04 10:25:15;;;;;;;0.70;0.35;;;22.70;55.10;;;;;;4859901;28;45304;-86
2023/08/04 10:27:50;;;;;;;0.47;0.20;;;22.70;55.10;;;;;;4865253;28;47410;-85
2023/08/04 10:30:15;;;;;;;0.30;0.20;;;22.70;55.10;;;;;;4858658;28;46276;-84
2023/08/04 10:32:41;;;;;;;0.30;0.22;;;22.70;55.20;;;;;;4847640;28;45074;-86
2023/08/04 10:35:18;;;;;;;0.47;0.22;;;22.70;55.10;;;;;;4864145;28;45524;-88
2023/08/04 10:37:45;;;;;;;2.10;0.20;;;22.70;55.10;;;;;;4889752;28;46035;-84
2023/08/04 10:40:11;;;;;;;0.30;0.20;;;22.70;55.10;;;;;;4867759;28;45543;-85
2023/08/04 10:42:56;;;;;;;0.10;0.10;;;22.70;55.10;;;;;;4865033;28;45459;-84
2023/08/04 10:45:22;;;;;;;0.30;0.20;;;22.70;55.10;;;;;;4870587;28;45260;-85
2023/08/04 10:47:51;;;;;;;0.55;0.30;;;22.70;55.10;;;;;;4862598;28;47698;-86
2023/08/04 10:50:16;;;;;;;0.88;0.30;;;22.70;55.10;;;;;;4872030;28;45264;-85
2023/08/04 10:52:42;;;;;;;0.38;0.30;;;22.70;55.10;;;;;;4879401;28;45032;-84
2023/08/04 10:55:09;;;;;;;0.30;0.30;;;22.70;55.10;;;;;;4881959;28;45303;-86
2023/08/04 10:57:39;;;;;;;0.30;0.22;;;22.70;55.10;;;;;;4862903;28;46979;-86
2023/08/04 11:00:09;;;;;;;0.45;0.20;;;22.70;55.10;;;;;;4856463;28;45343;-86
2023/08/04 11:02:35;;;;;;;0.47;0.30;;;22.70;55.10;;;;;;4861198;28;45124;-85
2023/08/04 11:05:05;;;;;;;0.63;0.30;;;22.70;55.10;;;;;;4869208;28;45245;-84
2023/08/04 11:07:30;;;;;;;1.27;0.30;;;22.70;55.10;;;;;;4877562;28;46005;-86
2023/08/04 11:09:56;;;;;;;0.10;0.10;;;22.70;55.10;;;;;;4843860;28;46316;-85
2023/08/04 11:12:21;;;;;;;0.60;0.20;;;22.70;55.10;;;;;;4886298;28;45203;-85
2023/08/04 11:14:49;;;;;;;0.57;0.30;;;22.70;55.20;;;;;;4869983;28;45475;-86
2023/08/04 11:17:20;;;;;;;0.43;0.30;;;22.70;55.20;;;;;;4877505;28;45878;-85
2023/08/04 11:19:46;;;;;;;0.30;0.30;;;22.70;55.10;;;;;;4857630;28;45078;-85
2023/08/04 11:22:14;;;;;;;0.20;0.20;;;22.70;55.10;;;;;;4865334;28;45670;-85
2023/08/04 11:24:40;;;;;;;0.77;0.30;;;22.70;55.10;;;;;;4872030;28;45494;-86
2023/08/04 11:27:06;;;;;;;0.15;0.15;;;22.70;55.10;;;;;;4858791;28;47014;-84
2023/08/04 11:29:32;;;;;;;0.35;0.30;;;22.70;55.10;;;;;;4863246;28;44860;-85
2023/08/04 11:31:57;;;;;;;0.57;0.30;;;22.70;55.10;;;;;;4835922;28;45668;-85
2023/08/04 11:34:23;;;;;;;0.75;0.20;;;22.70;55.10;;;;;;4876389;28;45677;-87
2023/08/04 11:36:49;;;;;;;0.17;0.17;;;22.70;55.10;;;;;;4882495;28;45349;-84
2023/08/04 11:39:14;;;;;;;0.57;0.30;;;22.70;55.10;;;;;;4862706;28;45084;-86
2023/08/04 11:41:42;;;;;;;0.45;0.30;;;22.70;55.10;;;;;;4860416;28;45244;-87
2023/08/04 11:44:08;;;;;;;0.70;0.22;;;22.70;55.20;;;;;;4869996;28;47603;-85
2023/08/04 11:46:33;;;;;;;0.57;0.40;;;22.70;55.10;;;;;;4852604;28;47080;-85
2023/08/04 11:49:03;;;;;;;0.20;0.20;;;22.70;55.10;;;;;;4847149;28;45969;-83
2023/08/04 11:51:29;;;;;;;0.40;0.20;;;22.70;55.10;;;;;;4880336;28;45092;-85
2023/08/04 11:53:54;;;;;;;0.50;0.30;;;22.70;55.10;;;;;;4862926;28;45262;-84
2023/08/04 11:56:20;;;;;;;0.40;0.20;;;22.70;55.20;;;;;;4854775;28;47603;-83
2023/08/04 11:58:50;;;;;;;1.23;0.30;;;22.70;55.10;;;;;;4865157;28;45218;-85
2023/08/04 12:01:30;;;;;;;0.38;0.25;;;22.70;55.10;;;;;;4873249;28;45290;-83
2023/08/04 12:03:55;;;;;;;0.35;0.20;;;22.70;55.10;;;;;;4862181;28;45501;-83
2023/08/04 12:06:22;;;;;;;1.98;0.32;;;22.70;55.20;;;;;;4842598;28;47184;-84
2023/08/04 12:08:54;;;;;;;0.15;0.10;;;22.70;55.10;;;;;;4863949;28;45521;-86
2023/08/04 12:11:21;;;;;;;1.27;0.25;;;22.70;55.20;;;;;;4886094;28;45361;-84
2023/08/04 12:13:47;;;;;;;0.20;0.20;;;22.70;55.20;;;;;;4864915;28;45529;-83
2023/08/04 12:16:13;;;;;;;0.73;0.28;;;22.70;55.20;;;;;;4858629;28;47329;-87
2023/08/04 12:18:41;;;;;;;0.28;0.28;;;22.70;55.20;;;;;;4899079;28;45246;-84
2023/08/04 12:21:10;;;;;;;0.43;0.20;;;22.70;55.20;;;;;;4856659;28;45486;-83
2023/08/04 12:23:36;;;;;;;0.30;0.30;;;22.70;55.20;;;;;;4874229;28;45281;-84
2023/08/04 12:26:02;;;;;;;0.28;0.20;;;22.70;55.20;;;;;;4868468;28;47492;-83
2023/08/04 12:28:27;;;;;;;0.13;0.10;;;22.70;55.20;;;;;;4876953;28;45205;-83
2023/08/04 12:30:53;;;;;;;0.13;0.10;;;22.70;55.20;;;;;;4856560;28;45280;-83
2023/08/04 12:33:18;;;;;;;0.60;0.10;;;22.70;55.20;;;;;;4859989;28;45300;-83
2023/08/04 12:35:44;;;;;;;0.20;0.20;;;22.70;55.20;;;;;;4843251;28;48209;-88
2023/08/04 12:38:11;;;;;;;0.20;0.20;;;22.70;55.20;;;;;;4876681;28;45183;-84
2023/08/04 12:40:37;;;;;;;2.42;0.30;;;22.70;55.20;;;;;;4870306;28;45342;-85
2023/08/04 12:43:02;;;;;;;0.30;0.30;;;22.70;55.20;;;;;;4867024;28;45767;-83
2023/08/04 12:45:28;;;;;;;0.10;0.10;;;22.70;55.20;;;;;;4867577;28;47519;-85
2023/08/04 12:47:54;;;;;;;0.28;0.13;;;22.70;55.20;;;;;;4884360;28;45339;-86
2023/08/04 12:50:19;;;;;;;0.75;0.32;;;22.70;55.20;;;;;;4866076;28;45267;-84
2023/08/04 12:52:47;;;;;;;0.63;0.32;;;22.70;55.80;;;;;;4864935;28;45585;-83
2023/08/04 12:55:13;;;;;;;0.90;0.32;;;22.70;55.20;;;;;;4876809;28;45668;-87
2023/08/04 12:57:39;;;;;;;0.40;0.30;;;22.70;55.20;;;;;;4868682;28;45546;-82
2023/08/04 13:00:08;;;;;;;0.90;0.40;;;22.70;55.20;;;;;;4879553;28;45383;-87
2023/08/04 13:02:33;;;;;;;0.30;0.15;;;22.70;55.20;;;;;;4871823;28;45347;-83
2023/08/04 13:04:59;;;;;;;0.57;0.20;;;22.70;55.20;;;;;;4885524;28;45516;-84
2023/08/04 13:07:24;;;;;;;0.47;0.30;;;22.70;55.20;;;;;;4869292;28;46118;-85
2023/08/04 13:09:50;;;;;;;0.40;0.28;;;22.70;55.20;;;;;;4888053;28;44793;-83
2023/08/04 13:12:16;;;;;;;0.30;0.20;;;22.70;55.20;;;;;;4885421;28;45247;-83
2023/08/04 13:14:41;;;;;;;0.28;0.20;;;22.70;55.20;;;;;;4883958;28;47007;-86
2023/08/04 13:17:07;;;;;;;0.70;0.35;;;22.70;55.20;;;;;;4880522;28;45348;-84
2023/08/04 13:19:33;;;;;;;0.22;0.20;;;22.70;55.20;;;;;;4873890;28;45210;-83
2023/08/04 13:22:02;;;;;;;1.00;0.32;;;22.70;55.30;;;;;;4873355;28;45015;-85
2023/08/04 13:24:27;;;;;;;0.98;0.28;;;22.70;55.30;;;;;;4873412;28;46695;-84
2023/08/04 13:26:53;;;;;;;0.45;0.25;;;22.70;55.30;;;;;;4883887;28;45360;-84
2023/08/04 13:29:18;;;;;;;0.65;0.20;;;22.70;55.30;;;;;;4858833;28;44974;-83
2023/08/04 13:31:44;;;;;;;1.05;0.40;;;22.70;55.30;;;;;;4866068;28;46044;-85
2023/08/04 13:34:10;;;;;;;0.30;0.20;;;22.70;55.30;;;;;;4859304;28;47453;-85
2023/08/04 13:36:35;;;;;;;0.90;0.20;;;22.70;55.30;;;;;;4853609;28;46197;-82
2023/08/04 13:39:01;;;;;;;0.52;0.30;;;22.70;55.30;;;;;;4888268;28;45451;-82
2023/08/04 13:41:26;;;;;;;0.47;0.35;;;22.70;55.30;;;;;;4886620;28;45892;-84
2023/08/04 13:43:52;;;;;;;1.00;0.45;;;22.70;55.30;;;;;;4885177;28;45162;-84
2023/08/04 13:46:17;;;;;;;0.45;0.25;;;22.70;55.30;;;;;;4864153;28;45165;-83
2023/08/04 13:48:43;;;;;;;0.95;0.30;;;22.70;55.30;;;;;;4883563;28;45220;-85
2023/08/04 13:51:08;;;;;;;0.50;0.30;;;22.70;55.30;;;;;;4866363;28;46315;-83
2023/08/04 13:53:34;;;;;;;1.23;0.20;;;22.70;55.30;;;;;;4889072;28;46173;-83
2023/08/04 13:56:01;;;;;;;0.50;0.20;;;22.70;55.30;;;;;;4869865;28;45506;-84
2023/08/04 13:58:26;;;;;;;2.92;0.40;;;22.70;55.30;;;;;;4879611;28;45076;-83
2023/08/04 14:00:59;;;;;;;0.93;0.30;;;22.70;55.30;;;;;;4863403;28;46277;-83
2023/08/04 14:03:25;;;;;;;0.10;0.10;;;22.70;55.40;;;;;;4888861;28;45284;-85
2023/08/04 14:05:57;;;;;;;0.43;0.20;;;22.70;55.40;;;;;;4885658;28;45480;-87
2023/08/04 14:08:23;;;;;;;0.93;0.40;;;22.80;55.40;;;;;;4877583;28;45226;-82
2023/08/04 14:10:48;;;;;;;0.40;0.25;;;22.70;55.40;;;;;;4871377;28;45035;-83
2023/08/04 14:13:14;;;;;;;0.30;0.30;;;22.70;55.30;;;;;;4873477;28;47333;-82
2023/08/04 14:15:40;;;;;;;0.65;0.20;;;22.80;55.40;;;;;;4864571;28;44984;-87
2023/08/04 14:18:06;;;;;;;0.30;0.30;;;22.80;55.40;;;;;;4870677;28;45266;-85
2023/08/04 14:20:31;;;;;;;0.80;0.25;;;22.80;55.40;;;;;;4847481;28;45369;-84
2023/08/04 14:22:57;;;;;;;0.32;0.22;;;22.70;55.30;;;;;;4882533;28;46274;-83
2023/08/04 14:25:22;;;;;;;0.75;0.30;;;22.70;55.40;;;;;;4873561;28;46151;-82
2023/08/04 14:27:50;;;;;;;1.52;0.38;;;22.70;55.40;;;;;;4870295;28;44985;-84
2023/08/04 14:30:16;;;;;;;0.15;0.15;;;22.80;55.40;;;;;;4871570;28;45171;-83
2023/08/04 14:32:41;;;;;;;0.80;0.30;;;22.70;55.40;;;;;;4869257;28;47445;-87
2023/08/04 14:35:07;;;;;;;0.30;0.30;;;22.70;55.40;;;;;;4864304;28;45530;-85
2023/08/04 14:37:33;;;;;;;0.35;0.30;;;22.80;55.40;;;;;;4847896;28;44791;-82
2023/08/04 14:39:59;;;;;;;0.20;0.20;;;22.80;55.40;;;;;;4896406;28;45733;-83
2023/08/04 14:42:25;;;;;;;0.40;0.30;;;22.70;55.40;;;;;;4884627;28;45569;-85
2023/08/04 14:44:50;;;;;;;0.73;0.20;;;22.80;55.40;;;;;;4885340;28;45112;-83
2023/08/04 14:47:16;;;;;;;0.50;0.30;;;22.80;55.40;;;;;;4862925;28;44681;-84
2023/08/04 14:49:48;;;;;;;0.30;0.20;;;22.80;55.40;;;;;;4872820;28;45620;-86
2023/08/04 14:52:13;;;;;;;0.45;0.30;;;22.80;55.40;;;;;;4895392;28;47895;-82
2023/08/04 14:54:39;;;;;;;0.80;0.30;;;22.70;55.40;;;;;;4868750;28;45613;-83
2023/08/04 14:57:05;;;;;;;0.52;0.25;;;22.80;55.40;;;;;;4861168;28;45432;-83
2023/08/04 14:59:30;;;;;;;0.30;0.20;;;22.80;55.40;;;;;;4881146;28;45215;-82
2023/08/04 15:01:56;;;;;;;1.05;0.40;;;22.70;55.40;;;;;;4875655;28;45429;-85
2023/08/04 15:04:21;;;;;;;0.95;0.50;;;22.80;55.40;;;;;;4879318;28;46025;-83
2023/08/04 15:06:47;;;;;;;0.85;0.40;;;22.80;55.40;;;;;;4873062;28;45392;-84
2023/08/04 15:09:12;;;;;;;0.20;0.20;;;22.80;55.40;;;;;;4870842;28;45247;-83
2023/08/04 15:11:38;;;;;;;0.40;0.30;;;22.80;55.40;;;;;;4848685;28;47738;-85
2023/08/04 15:14:04;;;;;;;1.00;0.52;;;22.80;55.40;;;;;;4870377;28;45296;-84
2023/08/04 15:16:29;;;;;;;0.77;0.20;;;22.80;55.40;;;;;;4879720;28;45297;-83
2023/08/04 15:18:57;;;;;;;0.73;0.30;;;22.80;55.40;;;;;;4881082;28;45991;-82
2023/08/04 15:21:23;;;;;;;0.50;0.28;;;22.80;55.40;;;;;;4894488;28;45197;-82
2023/08/04 15:23:49;;;;;;;0.65;0.30;;;22.80;55.40;;;;;;4888102;28;44646;-82
2023/08/04 15:26:14;;;;;;;1.00;0.30;;;22.80;55.40;;;;;;4861662;28;48811;-83
2023/08/04 15:28:41;;;;;;;0.45;0.20;;;22.80;55.40;;;;;;4884834;28;45011;-83
2023/08/04 15:31:07;;;;;;;0.38;0.30;;;22.80;55.40;;;;;;4873891;28;45416;-82
2023/08/04 15:33:33;;;;;;;0.30;0.20;;;22.80;55.50;;;;;;4906761;28;45340;-84
2023/08/04 15:35:59;;;;;;;0.43;0.30;;;22.80;55.40;;;;;;4905435;28;44989;-84
2023/08/04 15:38:25;;;;;;;1.30;0.40;;;22.80;55.40;;;;;;4887526;28;45085;-83
2023/08/04 15:41:04;;;;;;;0.30;0.30;;;22.80;55.40;;;;;;4888896;28;46642;-84
2023/08/04 15:43:30;;;;;;;0.55;0.40;;;22.80;55.40;;;;;;4885667;28;45317;-84